createdAt,value
2016-07-30T00:00:11.411Z,92.05
2016-07-30T00:01:10.693Z,91.96
2016-07-30T00:02:11.392Z,92.24
2016-07-30T00:03:10.676Z,92.15
2016-07-30T00:04:11.373Z,92.63
2016-07-30T00:05:11.367Z,92.44
2016-07-30T00:06:11.354Z,92.05
2016-07-30T00:07:11.344Z,92.34
2016-07-30T00:08:10.677Z,92.44
2016-07-30T00:09:10.668Z,92.24
2016-07-30T00:10:10.607Z,92.24
2016-07-30T00:11:11.306Z,92.39
2016-07-30T00:12:11.296Z,92.34
2016-07-30T00:13:11.288Z,92.63
2016-07-30T00:14:11.282Z,92.72
2016-07-30T00:15:10.562Z,92.82
2016-07-30T00:16:10.562Z,93.01
2016-07-30T00:17:10.542Z,92.72
2016-07-30T00:18:10.529Z,92.44
2016-07-30T00:19:10.519Z,92.44
2016-07-30T00:20:10.527Z,92.34
2016-07-30T00:21:10.506Z,92.54
2016-07-30T00:22:10.493Z,92.54
2016-07-30T00:23:11.196Z,92.34
2016-07-30T00:24:10.477Z,92.05
2016-07-30T00:25:10.469Z,92.15
2016-07-30T00:26:11.167Z,92.05
2016-07-30T00:27:10.447Z,92.15
2016-07-30T00:28:10.457Z,92.34
2016-07-30T00:29:11.138Z,92.15
2016-07-30T00:30:10.420Z,92.24
2016-07-30T00:31:10.411Z,91.96
2016-07-30T00:32:11.109Z,92.34
2016-07-30T00:33:10.392Z,92.05
2016-07-30T00:34:10.382Z,92.34
2016-07-30T00:35:10.373Z,92.05
2016-07-30T00:36:10.363Z,91.96
2016-07-30T00:37:10.343Z,92.15
2016-07-30T00:38:11.052Z,92.44
2016-07-30T00:39:10.388Z,92.24
2016-07-30T00:40:11.027Z,92.15
2016-07-30T00:41:10.367Z,92.15
2016-07-30T00:42:10.306Z,92.44
2016-07-30T00:43:10.300Z,92.34
2016-07-30T00:44:10.287Z,92.54
2016-07-30T00:45:10.985Z,92.15
2016-07-30T00:46:10.975Z,92.05
2016-07-30T00:47:10.259Z,92.82
2016-07-30T00:48:10.246Z,92.82
2016-07-30T00:49:10.243Z,92.82
2016-07-30T00:50:10.449Z,93.11
2016-07-30T00:51:10.222Z,93.21
2016-07-30T00:52:10.916Z,92.91
2016-07-30T00:53:10.958Z,92.63
2016-07-30T00:54:10.193Z,92.72
2016-07-30T00:55:10.201Z,93.11
2016-07-30T00:56:10.175Z,92.82
2016-07-30T00:57:10.166Z,92.82
2016-07-30T00:58:10.154Z,93.49
2016-07-30T00:59:10.850Z,92.72
2016-07-30T01:00:10.188Z,92.72
2016-07-30T01:01:10.175Z,93.3
2016-07-30T01:02:10.117Z,93.3
2016-07-30T01:03:10.814Z,93.01
2016-07-30T01:04:10.101Z,93.3
2016-07-30T01:05:10.145Z,93.01
2016-07-30T01:06:10.081Z,93.11
2016-07-30T01:07:10.069Z,93.11
2016-07-30T01:08:10.110Z,93.3
2016-07-30T01:09:10.054Z,93.01
2016-07-30T01:10:10.750Z,93.49
2016-07-30T01:11:10.737Z,93.21
2016-07-30T01:12:10.022Z,92.63
2016-07-30T01:13:10.719Z,92.72
2016-07-30T01:14:10.762Z,92.72
2016-07-30T01:15:10.703Z,92.82
2016-07-30T01:16:09.987Z,92.82
2016-07-30T01:17:09.981Z,92.63
2016-07-30T01:18:09.964Z,93.11
2016-07-30T01:19:10.668Z,92.63
2016-07-30T01:20:09.954Z,92.63
2016-07-30T01:21:10.644Z,92.82
2016-07-30T01:22:10.637Z,93.01
2016-07-30T01:23:09.922Z,92.82
2016-07-30T01:24:09.911Z,92.82
2016-07-30T01:25:09.906Z,93.01
2016-07-30T01:26:09.892Z,92.54
2016-07-30T01:27:09.882Z,93.15
2016-07-30T01:28:10.580Z,92.91
2016-07-30T01:29:10.570Z,93.01
2016-07-30T01:30:09.857Z,92.82
2016-07-30T01:31:10.555Z,93.01
2016-07-30T01:32:09.837Z,92.48
2016-07-30T01:33:09.826Z,92.05
2016-07-30T01:34:09.823Z,92.44
2016-07-30T01:35:09.809Z,92.24
2016-07-30T01:36:10.509Z,92.24
2016-07-30T01:37:10.497Z,92.44
2016-07-30T01:38:09.778Z,92.48
2016-07-30T01:39:09.773Z,92.68
2016-07-30T01:40:09.762Z,92.48
2016-07-30T01:41:09.754Z,91.91
2016-07-30T01:42:10.449Z,92.29
2016-07-30T01:43:09.731Z,92.1
2016-07-30T01:44:09.726Z,91.81
2016-07-30T01:45:09.717Z,91.57
2016-07-30T01:46:09.706Z,91.52
2016-07-30T01:47:09.701Z,91.24
2016-07-30T01:48:09.685Z,91.14
2016-07-30T01:49:09.686Z,91.91
2016-07-30T01:50:09.669Z,91.42
2016-07-30T01:51:09.663Z,91.14
2016-07-30T01:52:09.652Z,90.85
2016-07-30T01:53:09.641Z,90.56
2016-07-30T01:54:09.631Z,90.85
2016-07-30T01:55:09.620Z,90.47
2016-07-30T01:56:09.612Z,90.66
2016-07-30T01:57:09.603Z,90.75
2016-07-30T01:58:09.598Z,90.28
2016-07-30T01:59:09.586Z,90.47
2016-07-30T02:00:09.572Z,90.28
2016-07-30T02:01:09.564Z,90.08
2016-07-30T02:02:09.557Z,90.47
2016-07-30T02:03:09.547Z,90.47
2016-07-30T02:04:09.535Z,89.79
2016-07-30T02:05:09.528Z,89.99
2016-07-30T02:06:09.520Z,89.99
2016-07-30T02:07:10.218Z,89.89
2016-07-30T02:08:09.499Z,89.99
2016-07-30T02:09:10.204Z,89.89
2016-07-30T02:10:10.189Z,89.99
2016-07-30T02:11:10.178Z,89.7
2016-07-30T02:12:09.463Z,89.7
2016-07-30T02:13:09.450Z,89.89
2016-07-30T02:14:10.173Z,89.99
2016-07-30T02:15:09.430Z,89.99
2016-07-30T02:16:09.425Z,89.99
2016-07-30T02:17:09.414Z,89.89
2016-07-30T02:18:09.406Z,89.89
2016-07-30T02:19:09.397Z,89.89
2016-07-30T02:20:09.385Z,89.89
2016-07-30T02:21:10.099Z,89.99
2016-07-30T02:22:09.366Z,89.7
2016-07-30T02:23:10.065Z,89.99
2016-07-30T02:24:09.349Z,90.18
2016-07-30T02:25:10.048Z,89.89
2016-07-30T02:26:09.331Z,90.37
2016-07-30T02:27:09.324Z,89.99
2016-07-30T02:28:09.340Z,90.28
2016-07-30T02:29:09.301Z,90.85
2016-07-30T02:30:09.996Z,90.85
2016-07-30T02:31:09.283Z,90.56
2016-07-30T02:32:09.275Z,90.56
2016-07-30T02:33:09.271Z,90.95
2016-07-30T02:34:09.256Z,91.05
2016-07-30T02:35:09.960Z,91.52
2016-07-30T02:36:09.946Z,91.42
2016-07-30T02:37:09.226Z,91.28
2016-07-30T02:38:09.923Z,91.57
2016-07-30T02:39:09.208Z,91.67
2016-07-30T02:40:09.201Z,92.24
2016-07-30T02:41:09.911Z,91.67
2016-07-30T02:42:09.177Z,92.05
2016-07-30T02:43:09.172Z,92.15
2016-07-30T02:44:09.162Z,92.05
2016-07-30T02:45:09.857Z,92.44
2016-07-30T02:46:09.143Z,92.63
2016-07-30T02:47:09.849Z,92.54
2016-07-30T02:48:09.828Z,92.44
2016-07-30T02:49:09.115Z,92.24
2016-07-30T02:50:09.303Z,91.86
2016-07-30T02:51:09.096Z,92.34
2016-07-30T02:52:09.798Z,92.15
2016-07-30T02:53:09.081Z,92.63
2016-07-30T02:54:09.066Z,92.34
2016-07-30T02:55:09.056Z,92.44
2016-07-30T02:56:09.048Z,92.15
2016-07-30T02:57:09.037Z,93.11
2016-07-30T02:58:09.731Z,93.01
2016-07-30T02:59:09.722Z,92.82
2016-07-30T03:00:09.715Z,92.63
2016-07-30T03:01:09.203Z,92.72
2016-07-30T03:02:08.991Z,92.82
2016-07-30T03:03:08.978Z,93.01
2016-07-30T03:04:08.972Z,92.63
2016-07-30T03:05:09.668Z,93.01
2016-07-30T03:06:09.657Z,93.01
2016-07-30T03:07:09.648Z,93.01
2016-07-30T03:08:08.934Z,92.82
2016-07-30T03:09:09.632Z,92.82
2016-07-30T03:10:08.913Z,93.49
2016-07-30T03:11:08.905Z,93.01
2016-07-30T03:12:09.649Z,92.72
2016-07-30T03:13:09.597Z,92.82
2016-07-30T03:14:09.630Z,92.82
2016-07-30T03:15:08.865Z,93.01
2016-07-30T03:16:08.857Z,93.11
2016-07-30T03:17:08.848Z,92.72
2016-07-30T03:18:08.838Z,93.11
2016-07-30T03:19:08.828Z,92.97
2016-07-30T03:20:08.819Z,94.21
2016-07-30T03:21:08.806Z,93.44
2016-07-30T03:22:09.510Z,93.44
2016-07-30T03:23:08.794Z,94.12
2016-07-30T03:24:09.490Z,94.31
2016-07-30T03:25:09.484Z,93.73
2016-07-30T03:26:09.469Z,93.35
2016-07-30T03:27:09.459Z,94.02
2016-07-30T03:28:08.741Z,93.63
2016-07-30T03:29:08.737Z,94.02
2016-07-30T03:30:09.429Z,93.44
2016-07-30T03:31:08.717Z,93.83
2016-07-30T03:32:08.711Z,94.02
2016-07-30T03:33:08.695Z,94.02
2016-07-30T03:34:08.684Z,94.31
2016-07-30T03:35:09.382Z,94.31
2016-07-30T03:36:09.369Z,94.21
2016-07-30T03:37:08.660Z,94.69
2016-07-30T03:38:08.647Z,94.31
2016-07-30T03:39:08.637Z,94.79
2016-07-30T03:40:09.339Z,94.59
2016-07-30T03:41:08.625Z,94.59
2016-07-30T03:42:08.612Z,94.74
2016-07-30T03:43:09.305Z,94.74
2016-07-30T03:44:08.588Z,94.93
2016-07-30T03:45:08.580Z,94.84
2016-07-30T03:46:08.571Z,94.74
2016-07-30T03:47:09.269Z,94.93
2016-07-30T03:48:09.252Z,95.22
2016-07-30T03:49:08.540Z,95.22
2016-07-30T03:50:08.528Z,95.22
2016-07-30T03:51:08.529Z,95.22
2016-07-30T03:52:09.223Z,95.31
2016-07-30T03:53:08.499Z,95.41
2016-07-30T03:54:08.491Z,95.6
2016-07-30T03:55:08.480Z,95.31
2016-07-30T03:56:09.180Z,95.41
2016-07-30T03:57:08.461Z,95.79
2016-07-30T03:58:08.452Z,95.89
2016-07-30T03:59:08.441Z,95.79
2016-07-30T04:00:08.431Z,95.98
2016-07-30T04:01:08.419Z,95.98
2016-07-30T04:02:08.411Z,95.89
2016-07-30T04:03:08.401Z,96.27
2016-07-30T04:04:09.097Z,96.27
2016-07-30T04:05:09.095Z,95.98
2016-07-30T04:06:09.081Z,97.14
2016-07-30T04:07:08.376Z,96.94
2016-07-30T04:08:08.352Z,96.18
2016-07-30T04:09:09.051Z,96.84
2016-07-30T04:10:08.334Z,96.08
2016-07-30T04:11:09.029Z,96.08
2016-07-30T04:12:08.312Z,96.27
2016-07-30T04:13:08.306Z,96.08
2016-07-30T04:14:08.292Z,96.37
2016-07-30T04:15:08.284Z,96.47
2016-07-30T04:16:08.981Z,96.27
2016-07-30T04:17:08.970Z,95.7
2016-07-30T04:18:08.307Z,96.27
2016-07-30T04:19:08.245Z,95.98
2016-07-30T04:20:08.235Z,96.03
2016-07-30T04:21:08.225Z,95.7
2016-07-30T04:22:08.922Z,95.94
2016-07-30T04:23:08.910Z,96.03
2016-07-30T04:24:08.903Z,96.03
2016-07-30T04:25:08.187Z,96.03
2016-07-30T04:26:08.883Z,95.75
2016-07-30T04:27:08.167Z,96.32
2016-07-30T04:28:08.211Z,96.13
2016-07-30T04:29:08.870Z,95.94
2016-07-30T04:30:08.142Z,96.22
2016-07-30T04:31:08.840Z,95.94
2016-07-30T04:32:08.121Z,96.13
2016-07-30T04:33:08.817Z,96.22
2016-07-30T04:34:08.102Z,95.36
2016-07-30T04:35:08.796Z,95.46
2016-07-30T04:36:08.083Z,95.94
2016-07-30T04:37:08.781Z,95.65
2016-07-30T04:38:08.060Z,95.46
2016-07-30T04:39:08.050Z,95.36
2016-07-30T04:40:08.043Z,95.36
2016-07-30T04:41:08.033Z,95.26
2016-07-30T04:42:08.025Z,94.79
2016-07-30T04:43:08.725Z,95.17
2016-07-30T04:44:08.711Z,94.89
2016-07-30T04:45:07.999Z,94.59
2016-07-30T04:46:07.986Z,94.93
2016-07-30T04:47:07.977Z,95.03
2016-07-30T04:48:07.968Z,95.12
2016-07-30T04:49:07.958Z,95.21
2016-07-30T04:50:07.955Z,95.21
2016-07-30T04:51:07.939Z,95.21
2016-07-30T04:52:07.927Z,95.03
2016-07-30T04:54:08.619Z,94.64
2016-07-30T04:55:07.905Z,94.93
2016-07-30T04:56:07.890Z,94.45
2016-07-30T04:57:07.882Z,94.54
2016-07-30T04:58:07.869Z,94.74
2016-07-30T04:59:07.865Z,94.35
2016-07-30T05:00:07.855Z,94.07
2016-07-30T05:01:07.845Z,94.64
2016-07-30T05:02:08.546Z,94.26
2016-07-30T05:03:07.827Z,94.45
2016-07-30T05:04:08.523Z,94.64
2016-07-30T05:05:08.515Z,94.35
2016-07-30T05:06:07.796Z,93.54
2016-07-30T05:07:08.497Z,93.92
2016-07-30T05:08:08.484Z,93.88
2016-07-30T05:09:07.770Z,92.86
2016-07-30T05:10:07.762Z,92.29
2016-07-30T05:11:07.749Z,92.39
2016-07-30T05:12:08.455Z,91.72
2016-07-30T05:13:07.734Z,91.81
2016-07-30T05:14:08.434Z,92.24
2016-07-30T05:15:07.814Z,92.29
2016-07-30T05:16:07.701Z,91.72
2016-07-30T05:17:07.696Z,91.72
2016-07-30T05:18:08.391Z,91.52
2016-07-30T05:19:08.381Z,91.91
2016-07-30T05:20:07.669Z,90.85
2016-07-30T05:21:08.366Z,90.47
2016-07-30T05:22:07.648Z,90.08
2016-07-30T05:23:07.643Z,90.18
2016-07-30T05:24:07.633Z,89.89
2016-07-30T05:25:07.620Z,89.89
2016-07-30T05:26:07.614Z,89.7
2016-07-30T05:27:07.599Z,90.28
2016-07-30T05:28:07.593Z,89.79
2016-07-30T05:29:08.288Z,90.08
2016-07-30T05:30:07.577Z,89.32
2016-07-30T05:31:07.567Z,89.89
2016-07-30T05:32:08.264Z,89.32
2016-07-30T05:33:08.256Z,89.41
2016-07-30T05:34:08.243Z,89.32
2016-07-30T05:35:07.531Z,89.12
2016-07-30T05:36:07.522Z,89.03
2016-07-30T05:37:07.511Z,89.22
2016-07-30T05:38:08.209Z,88.74
2016-07-30T05:39:07.489Z,88.93
2016-07-30T05:40:07.483Z,88.65
2016-07-30T05:41:07.475Z,88.93
2016-07-30T05:42:07.463Z,88.93
2016-07-30T05:43:07.457Z,88.93
2016-07-30T05:44:07.450Z,88.45
2016-07-30T05:45:07.443Z,89.12
2016-07-30T05:46:07.430Z,89.32
2016-07-30T05:47:08.127Z,89.22
2016-07-30T05:48:07.410Z,89.32
2016-07-30T05:49:07.404Z,89.03
2016-07-30T05:50:08.099Z,89.32
2016-07-30T05:51:07.385Z,89.32
2016-07-30T05:52:07.368Z,89.41
2016-07-30T05:53:08.081Z,89.41
2016-07-30T05:54:07.352Z,89.89
2016-07-30T05:55:07.345Z,89.89
2016-07-30T05:56:07.337Z,89.89
2016-07-30T05:57:07.324Z,90.08
2016-07-30T05:58:07.318Z,89.61
2016-07-30T05:59:07.317Z,90.28
2016-07-30T06:00:07.301Z,89.99
2016-07-30T06:01:07.290Z,90.37
2016-07-30T06:02:07.283Z,89.89
2016-07-30T06:03:07.280Z,90.08
2016-07-30T06:04:07.967Z,90.37
2016-07-30T06:05:07.254Z,89.89
2016-07-30T06:06:07.249Z,90.18
2016-07-30T06:07:07.237Z,90.18
2016-07-30T06:08:07.224Z,90.13
2016-07-30T06:09:07.925Z,89.41
2016-07-30T06:10:07.203Z,89.26
2016-07-30T06:11:07.199Z,89.46
2016-07-30T06:12:07.894Z,88.98
2016-07-30T06:13:07.177Z,89.07
2016-07-30T06:14:07.179Z,88.79
2016-07-30T06:15:07.178Z,89.07
2016-07-30T06:16:07.149Z,89.36
2016-07-30T06:17:07.154Z,88.88
2016-07-30T06:18:07.135Z,89.36
2016-07-30T06:19:07.831Z,89.55
2016-07-30T06:20:07.122Z,90.22
2016-07-30T06:21:07.111Z,89.94
2016-07-30T06:22:07.099Z,88.98
2016-07-30T06:23:07.091Z,89.17
2016-07-30T06:24:07.076Z,88.02
2016-07-30T06:25:07.073Z,88.02
2016-07-30T06:26:07.770Z,88.11
2016-07-30T06:27:07.055Z,87.35
2016-07-30T06:28:07.047Z,87.92
2016-07-30T06:29:07.039Z,87.73
2016-07-30T06:30:07.738Z,87.49
2016-07-30T06:31:07.020Z,87.68
2016-07-30T06:32:07.008Z,87.58
2016-07-30T06:33:07.000Z,87.39
2016-07-30T06:34:07.696Z,87.58
2016-07-30T06:35:07.687Z,87.19
2016-07-30T06:36:06.973Z,87.19
2016-07-30T06:37:07.672Z,87.29
2016-07-30T06:38:06.953Z,86.91
2016-07-30T06:39:06.944Z,86.52
2016-07-30T06:40:06.937Z,85.47
2016-07-30T06:41:07.636Z,86.14
2016-07-30T06:42:06.918Z,86.43
2016-07-30T06:43:06.910Z,86.62
2016-07-30T06:44:06.901Z,85.47
2016-07-30T06:45:06.896Z,85.95
2016-07-30T06:46:06.882Z,85.18
2016-07-30T06:47:07.583Z,85.66
2016-07-30T06:48:06.862Z,85.66
2016-07-30T06:49:06.856Z,85.08
2016-07-30T06:50:06.847Z,84.6
2016-07-30T06:51:06.844Z,85.28
2016-07-30T06:52:07.540Z,84.99
2016-07-30T06:53:06.818Z,85.28
2016-07-30T06:54:06.814Z,84.51
2016-07-30T06:55:06.803Z,84.22
2016-07-30T06:56:06.793Z,84.03
2016-07-30T06:57:07.496Z,84.55
2016-07-30T06:58:07.482Z,83.74
2016-07-30T06:59:07.474Z,84.31
2016-07-30T07:00:06.758Z,83.87
2016-07-30T07:01:06.749Z,83.78
2016-07-30T07:02:06.794Z,83.45
2016-07-30T07:03:06.731Z,84.17
2016-07-30T07:04:06.725Z,84.07
2016-07-30T07:05:06.712Z,83.97
2016-07-30T07:06:06.701Z,84.26
2016-07-30T07:07:06.746Z,83.01
2016-07-30T07:08:06.686Z,83.11
2016-07-30T07:09:06.683Z,82.53
2016-07-30T07:10:07.374Z,82.34
2016-07-30T07:11:06.658Z,82.24
2016-07-30T07:12:06.654Z,82.05
2016-07-30T07:13:06.640Z,83.3
2016-07-30T07:14:06.633Z,82.15
2016-07-30T07:15:07.329Z,82.92
2016-07-30T07:16:06.615Z,82.05
2016-07-30T07:17:06.604Z,82.43
2016-07-30T07:18:06.597Z,82.24
2016-07-30T07:19:06.586Z,82.34
2016-07-30T07:20:07.286Z,82.48
2016-07-30T07:21:07.277Z,82.38
2016-07-30T07:22:06.561Z,81.71
2016-07-30T07:23:06.550Z,81.9
2016-07-30T07:24:06.546Z,81.61
2016-07-30T07:25:06.535Z,81.13
2016-07-30T07:26:06.525Z,81.23
2016-07-30T07:27:06.517Z,82.76
2016-07-30T07:28:07.217Z,82.48
2016-07-30T07:29:06.502Z,81.71
2016-07-30T07:30:06.493Z,81.99
2016-07-30T07:31:07.191Z,81.52
2016-07-30T07:32:07.186Z,81.13
2016-07-30T07:33:06.472Z,81.71
2016-07-30T07:34:06.460Z,81.99
2016-07-30T07:35:07.160Z,81.42
2016-07-30T07:36:06.443Z,81.32
2016-07-30T07:37:06.433Z,81.52
2016-07-30T07:38:06.424Z,82.19
2016-07-30T07:39:07.134Z,82.76
2016-07-30T07:40:06.410Z,81.71
2016-07-30T07:41:06.453Z,81.61
2016-07-30T07:42:06.397Z,81.13
2016-07-30T07:43:07.093Z,81.61
2016-07-30T07:44:07.088Z,81.52
2016-07-30T07:45:06.370Z,80.65
2016-07-30T07:46:06.365Z,81.13
2016-07-30T07:47:06.359Z,80.94
2016-07-30T07:48:06.398Z,81.23
2016-07-30T07:49:06.337Z,80.17
2016-07-30T07:50:06.327Z,80.27
2016-07-30T07:51:06.319Z,79.63
2016-07-30T07:52:07.028Z,80.3
2016-07-30T07:53:06.305Z,81.17
2016-07-30T07:54:06.299Z,80.88
2016-07-30T07:55:06.289Z,80.11
2016-07-30T07:56:06.280Z,78.58
2016-07-30T07:57:06.276Z,77.46
2016-07-30T07:58:06.269Z,75.67
2016-07-30T07:59:06.979Z,75.45
2016-07-30T08:00:06.963Z,74.2
2016-07-30T08:01:06.965Z,72.79
2016-07-30T08:02:06.944Z,71.96
2016-07-30T08:03:06.236Z,71.86
2016-07-30T08:04:06.225Z,73.79
2016-07-30T08:05:06.928Z,74.05
2016-07-30T08:06:06.226Z,75.16
2016-07-30T08:07:06.260Z,75.71
2016-07-30T08:08:06.911Z,75.23
2016-07-30T08:09:06.196Z,76.18
2016-07-30T08:10:06.901Z,76.92
2016-07-30T08:11:06.891Z,77.5
2016-07-30T08:12:06.178Z,77.75
2016-07-30T08:13:06.172Z,78.9
2016-07-30T08:14:06.167Z,77.65
2016-07-30T08:15:06.159Z,76.82
2016-07-30T08:16:06.860Z,77.01
2016-07-30T08:17:06.145Z,76.69
2016-07-30T08:18:06.138Z,76.53
2016-07-30T08:19:06.133Z,74.22
2016-07-30T08:20:06.834Z,75.55
2016-07-30T08:21:06.825Z,76.09
2016-07-30T08:22:06.820Z,75.76
2016-07-30T08:23:06.108Z,76.25
2016-07-30T08:24:06.099Z,77.08
2016-07-30T08:25:07.312Z,77.56
2016-07-30T08:26:06.085Z,77.56
2016-07-30T08:27:06.082Z,77.65
2016-07-30T08:28:06.778Z,74.86
2016-07-30T08:29:06.068Z,72.08
2016-07-30T08:30:06.770Z,69.58
2016-07-30T08:31:06.055Z,70.97
2016-07-30T08:32:06.755Z,71.26
2016-07-30T08:33:06.042Z,71.67
2016-07-30T08:34:06.033Z,71.58
2016-07-30T08:35:06.031Z,72.89
2016-07-30T08:36:06.029Z,74.97
2016-07-30T08:37:06.018Z,76.03
2016-07-30T08:38:06.014Z,75.93
2016-07-30T08:39:06.004Z,75.99
2016-07-30T08:40:05.998Z,76.73
2016-07-30T08:41:05.992Z,76.44
2016-07-30T08:42:05.983Z,77.11
2016-07-30T08:43:05.976Z,77.4
2016-07-30T08:44:06.683Z,74.8
2016-07-30T08:45:05.973Z,71.92
2016-07-30T08:46:05.955Z,68.65
2016-07-30T08:47:06.658Z,67.14
2016-07-30T08:48:06.653Z,65.08
2016-07-30T08:49:05.939Z,62.5
2016-07-30T08:50:05.934Z,61.66
2016-07-30T08:51:06.841Z,61.46
2016-07-30T08:52:05.923Z,60.82
2016-07-30T08:53:06.626Z,61.46
2016-07-30T08:54:05.900Z,63.56
2016-07-30T08:55:05.904Z,64.89
2016-07-30T08:56:05.903Z,67.66
2016-07-30T08:57:05.892Z,67.62
2016-07-30T08:58:05.888Z,67.52
2016-07-30T08:59:05.882Z,67.52
2016-07-30T09:00:05.932Z,67.88
2016-07-30T09:01:05.877Z,67.59
2016-07-30T09:02:05.864Z,66.14
2016-07-30T09:03:05.861Z,65.69
2016-07-30T09:04:06.563Z,67.82
2016-07-30T09:05:05.849Z,67.62
2016-07-30T09:06:05.844Z,69.13
2016-07-30T09:07:05.842Z,69.13
2016-07-30T09:08:06.537Z,70.54
2016-07-30T09:10:05.821Z,71.15
2016-07-30T09:11:05.811Z,71.7
2016-07-30T09:12:06.509Z,72.08
2016-07-30T09:13:05.832Z,72.5
2016-07-30T09:14:06.562Z,72.21
2016-07-30T09:15:06.519Z,72.5
2016-07-30T09:16:06.488Z,73.31
2016-07-30T09:17:05.809Z,72.63
2016-07-30T09:18:05.787Z,71.77
2016-07-30T09:19:05.763Z,71.73
2016-07-30T09:20:06.464Z,72.12
2016-07-30T09:21:05.749Z,71.83
2016-07-30T09:22:06.449Z,71.54
2016-07-30T09:23:06.445Z,71.31
2016-07-30T09:24:05.733Z,71.6
2016-07-30T09:25:05.727Z,71.89
2016-07-30T09:26:06.431Z,71.7
2016-07-30T09:27:05.718Z,70.83
2016-07-30T09:28:05.714Z,71.31
2016-07-30T09:29:05.712Z,70.28
2016-07-30T09:30:05.695Z,70.8
2016-07-30T09:31:06.413Z,69.64
2016-07-30T09:32:05.683Z,69.35
2016-07-30T09:33:06.405Z,70.61
2016-07-30T09:34:05.695Z,70.03
2016-07-30T09:35:05.686Z,68.81
2016-07-30T09:36:06.370Z,67.85
2016-07-30T09:37:05.655Z,67.69
2016-07-30T09:38:06.380Z,68.81
2016-07-30T09:39:06.367Z,70.06
2016-07-30T09:40:05.637Z,69.58
2016-07-30T09:41:06.352Z,70.26
2016-07-30T09:42:06.371Z,70.45
2016-07-30T09:43:05.621Z,70.45
2016-07-30T09:44:05.616Z,70.7
2016-07-30T09:45:05.630Z,71.48
2016-07-30T09:46:06.307Z,71.28
2016-07-30T09:47:06.346Z,72.12
2016-07-30T09:48:05.659Z,73.18
2016-07-30T09:49:05.583Z,72.63
2016-07-30T09:50:05.579Z,72.6
2016-07-30T09:51:05.590Z,71.77
2016-07-30T09:52:06.301Z,73.18
2016-07-30T09:53:05.556Z,72.02
2016-07-30T09:54:06.280Z,72.21
2016-07-30T09:55:06.281Z,73.18
2016-07-30T09:56:05.537Z,73.24
2016-07-30T09:57:05.534Z,73.33
2016-07-30T09:58:05.535Z,73.72
2016-07-30T09:59:05.522Z,74.68
2016-07-30T10:00:06.224Z,74.58
2016-07-30T10:01:05.505Z,75.36
2016-07-30T10:02:05.503Z,75.55
2016-07-30T10:03:05.501Z,75.55
2016-07-30T10:04:05.486Z,75.74
2016-07-30T10:05:06.188Z,76.51
2016-07-30T10:06:05.475Z,76.71
2016-07-30T10:07:06.188Z,75.65
2016-07-30T10:08:05.465Z,74.78
2016-07-30T10:09:06.161Z,76.03
2016-07-30T10:10:05.448Z,75.45
2016-07-30T10:11:05.444Z,77.38
2016-07-30T10:12:06.139Z,75.55
2016-07-30T10:13:05.430Z,75.36
2016-07-30T10:14:05.425Z,76.03
2016-07-30T10:15:05.416Z,76.07
2016-07-30T10:16:05.408Z,74.52
2016-07-30T10:17:05.403Z,75.01
2016-07-30T10:18:05.398Z,74.78
2016-07-30T10:19:06.097Z,75.26
2016-07-30T10:20:05.387Z,76.03
2016-07-30T10:21:05.379Z,75.93
2016-07-30T10:22:05.372Z,75.93
2016-07-30T10:23:06.069Z,76.51
2016-07-30T10:24:05.359Z,76.51
2016-07-30T10:25:05.350Z,76.8
2016-07-30T10:26:05.345Z,76.8
2016-07-30T10:27:05.338Z,76.61
2016-07-30T10:28:05.331Z,77.96
2016-07-30T10:29:06.029Z,76.61
2016-07-30T10:30:05.318Z,76.9
2016-07-30T10:31:05.316Z,76.23
2016-07-30T10:32:05.306Z,76.51
2016-07-30T10:33:05.304Z,75.59
2016-07-30T10:34:05.290Z,75.49
2016-07-30T10:35:05.288Z,76.17
2016-07-30T10:36:05.278Z,76.07
2016-07-30T10:37:05.272Z,76.17
2016-07-30T10:38:05.973Z,74.82
2016-07-30T10:39:05.260Z,73.57
2016-07-30T10:40:05.306Z,72.38
2016-07-30T10:41:05.249Z,70.52
2016-07-30T10:42:05.446Z,69.74
2016-07-30T10:43:05.238Z,67.88
2016-07-30T10:44:05.230Z,67.72
2016-07-30T10:45:05.224Z,65.37
2016-07-30T10:46:05.930Z,61.75
2016-07-30T10:47:05.216Z,62.62
2016-07-30T10:48:05.209Z,62.85
2016-07-30T10:49:05.913Z,63.59
2016-07-30T10:50:05.206Z,64.24
2016-07-30T10:51:05.456Z,65.47
2016-07-30T10:52:05.195Z,64.85
2016-07-30T10:53:05.950Z,66.56
2016-07-30T10:54:05.190Z,68.88
2016-07-30T10:55:05.186Z,68.75
2016-07-30T10:56:05.186Z,68.66
2016-07-30T10:57:05.177Z,68.85
2016-07-30T10:58:05.881Z,69.53
2016-07-30T10:59:05.168Z,68.82
2016-07-30T11:00:05.165Z,69.49
2016-07-30T11:01:05.875Z,70.46
2016-07-30T11:02:05.159Z,71.81
2016-07-30T11:03:05.152Z,71.23
2016-07-30T11:04:05.858Z,70.94
2016-07-30T11:05:05.146Z,69.1
2016-07-30T11:06:05.848Z,69.78
2016-07-30T11:07:05.133Z,70.26
2016-07-30T11:08:05.139Z,69.4
2016-07-30T11:09:05.125Z,69.78
2016-07-30T11:10:05.120Z,71
2016-07-30T11:11:05.115Z,69.88
2016-07-30T11:12:05.814Z,71.3
2016-07-30T11:13:05.107Z,71
2016-07-30T11:14:05.114Z,71.48
2016-07-30T11:15:05.094Z,70.14
2016-07-30T11:16:05.088Z,71.1
2016-07-30T11:17:05.084Z,71.78
2016-07-30T11:18:05.784Z,70.52
2016-07-30T11:19:05.083Z,71.3
2016-07-30T11:20:05.774Z,71.45
2016-07-30T11:21:05.779Z,72
2016-07-30T11:22:05.762Z,72.77
2016-07-30T11:23:05.051Z,72.77
2016-07-30T11:24:05.752Z,72.77
2016-07-30T11:25:05.748Z,73.35
2016-07-30T11:26:05.033Z,72.67
2016-07-30T11:27:05.075Z,74.02
2016-07-30T11:28:05.026Z,73.83
2016-07-30T11:29:05.726Z,74.21
2016-07-30T11:30:05.010Z,74.95
2016-07-30T11:31:05.712Z,74.6
2016-07-30T11:32:05.000Z,74.51
2016-07-30T11:33:04.999Z,74.27
2016-07-30T11:34:04.991Z,74.47
2016-07-30T11:35:04.985Z,74.76
2016-07-30T11:36:05.679Z,74.27
2016-07-30T11:37:04.967Z,75.14
2016-07-30T11:38:04.971Z,73.79
2016-07-30T11:39:05.158Z,74.66
2016-07-30T11:40:05.658Z,74.76
2016-07-30T11:41:05.650Z,75.34
2016-07-30T11:42:04.940Z,75.53
2016-07-30T11:43:05.640Z,75.34
2016-07-30T11:44:04.927Z,76.36
2016-07-30T11:45:04.922Z,76.17
2016-07-30T11:46:04.912Z,76.07
2016-07-30T11:47:04.906Z,76.55
2016-07-30T11:48:05.611Z,75.72
2016-07-30T11:49:05.600Z,75.97
2016-07-30T11:50:04.884Z,75.34
2016-07-30T11:51:04.881Z,74.66
2016-07-30T11:52:04.874Z,75.82
2016-07-30T11:53:04.864Z,75.72
2016-07-30T11:54:04.859Z,74.95
2016-07-30T11:55:04.852Z,75.92
2016-07-30T11:56:05.556Z,74.76
2016-07-30T11:57:04.843Z,73.93
2016-07-30T11:58:04.836Z,74.79
2016-07-30T11:59:04.828Z,74.02
2016-07-30T12:00:04.825Z,74.25
2016-07-30T12:01:04.816Z,74.35
2016-07-30T12:02:05.524Z,72.13
2016-07-30T12:03:04.804Z,71
2016-07-30T12:04:04.799Z,71
2016-07-30T12:05:04.799Z,71.14
2016-07-30T12:06:04.789Z,69.4
2016-07-30T12:07:05.488Z,67.88
2016-07-30T12:08:04.774Z,69.24
2016-07-30T12:09:04.777Z,69.46
2016-07-30T12:10:05.482Z,67.5
2016-07-30T12:11:05.470Z,63.34
2016-07-30T12:12:04.756Z,64.53
2016-07-30T12:13:05.457Z,62.13
2016-07-30T12:14:04.745Z,61.36
2016-07-30T12:15:04.741Z,61.78
2016-07-30T12:16:04.793Z,61.58
2016-07-30T12:17:04.734Z,59.67
2016-07-30T12:18:05.437Z,60
2016-07-30T12:19:04.737Z,59.74
2016-07-30T12:20:05.434Z,58.4
2016-07-30T12:21:05.435Z,56.07
2016-07-30T12:22:04.725Z,55.8
2016-07-30T12:23:05.431Z,54.74
2016-07-30T12:24:05.428Z,53.89
2016-07-30T12:25:05.430Z,52.62
2016-07-30T12:26:05.424Z,54.18
2016-07-30T12:27:04.723Z,53.01
2016-07-30T12:28:05.423Z,52.62
2016-07-30T12:29:05.425Z,51.77
2016-07-30T12:30:04.716Z,52.92
2016-07-30T12:31:05.427Z,54.66
2016-07-30T12:32:05.476Z,52.36
2016-07-30T12:33:04.719Z,52.62
2016-07-30T12:34:04.719Z,53.79
2016-07-30T12:35:04.731Z,53.38
2016-07-30T12:36:04.723Z,54.32
2016-07-30T12:37:04.732Z,54.13
2016-07-30T12:38:05.434Z,53.54
2016-07-30T12:39:05.427Z,52.37
2016-07-30T12:40:04.726Z,53.54
2016-07-30T12:41:04.804Z,54.61
2016-07-30T12:42:05.428Z,54.29
2016-07-30T12:43:05.433Z,55.73
2016-07-30T12:44:04.717Z,57.42
2016-07-30T12:45:04.723Z,58.97
2016-07-30T12:46:04.722Z,59.23
2016-07-30T12:47:04.714Z,59.61
2016-07-30T12:48:04.715Z,59.61
2016-07-30T12:49:04.713Z,58.19
2016-07-30T12:50:04.710Z,57.51
2016-07-30T12:51:04.909Z,57.7
2016-07-30T12:52:04.707Z,55.79
2016-07-30T12:53:04.712Z,56.01
2016-07-30T12:54:05.412Z,56.43
2016-07-30T12:55:04.702Z,56.62
2016-07-30T12:56:05.407Z,55.36